Toronto, South Dakota
Current Conditions -  °F | °C
As of 11:33 PM on Sunday 19 Oct 2014 (Local Time) from KCNB Reporting Station
Clear Clear  
Wind Chill: 47°   Ceiling: Unl
Heat Index: 50°   Visibility: 10mi
Dew Point: 39°   Wind: 6mph
Humidity: 67%   Direction: 290°WNW
Pressure: 29.98"   Gusts: NA
Location:  44.57°N, 96.64°W
Report Text: KCNB 200433Z AUTO 29005KT 10SM CLR 10/04 A2998 RMK AO2 T00980040
Loading
Personal Weather Stations






























Interactive Weather Map New forecast layout! Learn more

10-Day Weather Forecast

Advertisements
Track Severe Weather on mobile